Terminal Aerodrome Forecast
Issued by NWS Pueblo, CO

Home | Current Version | Previous Version | Text Only | Print | Product List | Glossary On
Versions: 1 2 3 4 5 6 7 8 9 10 11 12 13 14 15 16 17 18 19 20 21 22 23 24 25 26 27 28 29 30 31 32 33 34 35 36 37 38 39 40 41 42 43 44 45 46 47 48 49 50
000
FTUS45 KPUB 040139 AAA
TAFCOS
TAF AMD
KCOS 040139Z 0402/0424 16009KT 1/2SM SN FZFG BKN005 OVC010
     FM040900 03015G25KT 1SM -SN BLSN BR OVC005
     FM041500 06012KT 1/2SM -SN FZFG OVC003
     FM041800 04012KT 3SM -SN BR OVC012
     FM042000 01012KT P6SM OVC030=

USA.gov is the U.S. government's official web portal to all federal, state and local government web resources and services.